createdAt,value
2017-09-09T00:01:15.736Z,52.40
2017-09-09T00:03:43.524Z,52.50
2017-09-09T00:06:11.236Z,52.50
2017-09-09T00:08:38.809Z,52.50
2017-09-09T00:11:06.584Z,52.50
2017-09-09T00:13:34.115Z,52.40
2017-09-09T00:16:01.657Z,52.50
2017-09-09T00:18:29.184Z,52.40
2017-09-09T00:20:56.700Z,52.50
2017-09-09T00:23:24.244Z,52.50
2017-09-09T00:25:51.740Z,52.60
2017-09-09T00:28:19.566Z,52.50
2017-09-09T00:30:47.088Z,52.50
2017-09-09T00:33:14.581Z,52.50
2017-09-09T00:35:42.142Z,52.50
2017-09-09T00:38:09.647Z,52.50
2017-09-09T00:40:37.200Z,52.50
2017-09-09T00:43:04.691Z,52.50
2017-09-09T00:45:32.277Z,52.50
2017-09-09T00:48:00.100Z,52.50
2017-09-09T00:50:27.599Z,52.50
2017-09-09T00:52:55.167Z,52.50
2017-09-09T00:55:22.683Z,52.50
2017-09-09T00:57:50.193Z,52.50
2017-09-09T01:00:17.750Z,52.50
2017-09-09T01:02:45.237Z,52.50
2017-09-09T01:05:12.728Z,52.60
2017-09-09T01:07:40.270Z,52.60
2017-09-09T01:10:07.801Z,52.60
2017-09-09T01:12:35.534Z,52.60
2017-09-09T01:15:03.469Z,52.60
2017-09-09T01:17:30.979Z,52.60
2017-09-09T01:19:58.517Z,52.50
2017-09-09T01:22:26.076Z,52.60
2017-09-09T01:24:53.611Z,52.60
2017-09-09T01:27:21.379Z,52.60
2017-09-09T01:29:48.921Z,52.60
2017-09-09T01:32:16.423Z,52.60
2017-09-09T01:34:44.372Z,52.70
2017-09-09T01:37:11.876Z,52.70
2017-09-09T01:39:39.852Z,52.70
2017-09-09T01:42:07.381Z,52.70
2017-09-09T01:44:34.930Z,53.50
2017-09-09T01:47:02.431Z,52.80
2017-09-09T01:49:29.972Z,52.80
2017-09-09T01:51:57.608Z,52.70
2017-09-09T01:54:25.119Z,52.70
2017-09-09T01:56:52.841Z,52.80
2017-09-09T01:59:20.349Z,52.70
2017-09-09T02:01:47.879Z,52.80
2017-09-09T02:04:15.407Z,52.80
2017-09-09T02:06:43.256Z,52.90
2017-09-09T02:09:10.805Z,52.80
2017-09-09T02:11:38.494Z,52.90
2017-09-09T02:14:06.027Z,52.80
2017-09-09T02:16:33.547Z,52.90
2017-09-09T02:19:01.053Z,52.90
2017-09-09T02:21:28.677Z,52.90
2017-09-09T02:23:56.330Z,52.90
2017-09-09T02:26:23.848Z,52.90
2017-09-09T02:28:51.408Z,52.90
2017-09-09T02:31:19.396Z,53.00
2017-09-09T02:33:46.939Z,52.90
2017-09-09T02:36:14.598Z,53.00
2017-09-09T02:38:42.116Z,53.00
2017-09-09T02:41:09.643Z,53.10
2017-09-09T02:43:37.448Z,53.10
2017-09-09T02:46:04.947Z,53.10
2017-09-09T02:48:32.489Z,53.10
2017-09-09T02:51:00.036Z,53.10
2017-09-09T02:53:27.597Z,53.00
2017-09-09T02:55:55.105Z,53.10
2017-09-09T02:58:22.641Z,53.00
2017-09-09T03:00:50.335Z,53.10
2017-09-09T03:03:17.881Z,53.10
2017-09-09T03:05:45.381Z,53.10
2017-09-09T03:08:12.889Z,53.00
2017-09-09T03:10:40.441Z,53.10
2017-09-09T03:13:07.940Z,53.20
2017-09-09T03:15:35.432Z,53.20
2017-09-09T03:18:02.976Z,53.20
2017-09-09T03:20:30.516Z,53.10
2017-09-09T03:22:58.125Z,53.20
2017-09-09T03:25:25.648Z,53.20
2017-09-09T03:27:53.148Z,53.20
2017-09-09T03:30:20.679Z,53.20
2017-09-09T03:32:48.192Z,53.20
2017-09-09T03:35:16.424Z,53.20
2017-09-09T03:37:44.327Z,53.30
2017-09-09T03:40:11.856Z,53.30
2017-09-09T03:42:39.374Z,53.30
2017-09-09T03:45:06.872Z,53.30
2017-09-09T03:47:34.548Z,53.30
2017-09-09T03:50:02.301Z,53.30
2017-09-09T03:52:30.087Z,53.20
2017-09-09T03:54:57.827Z,53.30
2017-09-09T03:57:25.382Z,53.30
2017-09-09T03:59:53.051Z,53.20
2017-09-09T04:02:20.543Z,53.30
2017-09-09T04:04:48.413Z,53.30
2017-09-09T04:07:15.921Z,53.30
2017-09-09T04:09:43.452Z,53.30
2017-09-09T04:12:11.062Z,53.10
2017-09-09T04:14:38.647Z,53.30
2017-09-09T04:17:06.404Z,53.30
2017-09-09T04:19:33.932Z,53.20
2017-09-09T04:22:01.424Z,53.30
2017-09-09T04:24:28.932Z,53.40
2017-09-09T04:26:56.719Z,53.40
2017-09-09T04:29:24.251Z,53.40
2017-09-09T04:31:51.740Z,53.30
2017-09-09T04:34:19.245Z,53.40
2017-09-09T04:36:46.761Z,53.40
2017-09-09T04:39:14.335Z,53.40
2017-09-09T04:41:41.866Z,53.40
2017-09-09T04:44:09.368Z,53.40
2017-09-09T04:46:37.035Z,53.40
2017-09-09T04:49:04.536Z,53.40
2017-09-09T04:51:32.257Z,53.40
2017-09-09T04:53:59.788Z,53.40
2017-09-09T04:56:27.304Z,53.30
2017-09-09T04:58:55.004Z,53.30
2017-09-09T05:01:22.489Z,53.30
2017-09-09T05:03:50.043Z,53.30
2017-09-09T05:06:17.565Z,53.30
2017-09-09T05:08:45.070Z,53.30
2017-09-09T05:11:12.612Z,53.30
2017-09-09T05:13:40.148Z,53.30
2017-09-09T05:16:08.152Z,53.30
2017-09-09T05:18:36.409Z,53.30
2017-09-09T05:21:04.433Z,53.30
2017-09-09T05:23:31.940Z,53.30
2017-09-09T05:25:59.457Z,53.30
2017-09-09T05:28:26.948Z,53.30
2017-09-09T05:30:54.494Z,53.30
2017-09-09T05:33:21.990Z,53.30
2017-09-09T05:35:49.502Z,53.30
2017-09-09T05:38:17.246Z,53.20
2017-09-09T05:40:44.790Z,53.30
2017-09-09T05:43:12.357Z,53.30
2017-09-09T05:45:39.863Z,53.30
2017-09-09T05:48:07.374Z,53.20
2017-09-09T05:50:34.929Z,53.20
2017-09-09T05:53:02.422Z,53.30
2017-09-09T05:55:29.937Z,53.40
2017-09-09T05:57:57.468Z,53.30
2017-09-09T06:00:24.975Z,53.30
2017-09-09T06:02:52.470Z,53.30
2017-09-09T06:05:20.007Z,53.30
2017-09-09T06:07:47.500Z,53.40
2017-09-09T06:10:15.008Z,53.40
2017-09-09T06:12:42.726Z,53.40
2017-09-09T06:15:11.048Z,53.50
2017-09-09T06:17:38.601Z,53.30
2017-09-09T06:20:06.088Z,53.10
2017-09-09T06:22:33.659Z,53.40
2017-09-09T06:25:01.589Z,54.20
2017-09-09T06:27:29.249Z,53.40
2017-09-09T06:29:56.777Z,53.40
2017-09-09T06:32:24.271Z,53.40
2017-09-09T06:34:51.827Z,53.50
2017-09-09T06:37:19.485Z,53.40
2017-09-09T06:39:47.069Z,53.40
2017-09-09T06:42:14.598Z,53.40
2017-09-09T06:44:42.121Z,53.40
2017-09-09T06:47:09.752Z,53.40
2017-09-09T06:49:37.236Z,53.50
2017-09-09T06:52:04.764Z,53.50
2017-09-09T06:54:32.612Z,53.40
2017-09-09T06:57:00.139Z,53.40
2017-09-09T06:59:27.672Z,53.50
2017-09-09T07:01:55.285Z,53.40
2017-09-09T07:04:23.097Z,53.50
2017-09-09T07:06:50.615Z,53.50
2017-09-09T07:09:18.115Z,53.40
2017-09-09T07:11:46.112Z,53.50
2017-09-09T07:14:13.705Z,53.40
2017-09-09T07:16:41.204Z,53.50
2017-09-09T07:19:08.711Z,53.50
2017-09-09T07:21:36.475Z,53.50
2017-09-09T07:24:04.190Z,53.50
2017-09-09T07:26:31.696Z,53.50
2017-09-09T07:28:59.256Z,53.50
2017-09-09T07:31:26.785Z,53.50
2017-09-09T07:33:54.309Z,53.50
2017-09-09T07:36:22.140Z,53.50
2017-09-09T07:38:49.699Z,53.50
2017-09-09T07:41:17.219Z,53.60
2017-09-09T07:43:44.818Z,53.50
2017-09-09T07:46:12.439Z,53.50
2017-09-09T07:48:40.213Z,53.50
2017-09-09T07:51:07.711Z,53.50
2017-09-09T07:53:35.230Z,53.60
2017-09-09T07:56:02.728Z,53.60
2017-09-09T07:58:30.253Z,53.60
2017-09-09T08:00:57.760Z,53.60
2017-09-09T08:03:25.260Z,53.50
2017-09-09T08:05:52.830Z,53.60
2017-09-09T08:08:20.376Z,53.60
2017-09-09T08:10:47.887Z,53.60
2017-09-09T08:13:15.425Z,53.60
2017-09-09T08:15:42.943Z,53.60
2017-09-09T08:18:10.504Z,53.60
2017-09-09T08:20:38.515Z,53.60
2017-09-09T08:23:06.008Z,53.60
2017-09-09T08:25:34.014Z,53.60
2017-09-09T08:28:01.522Z,53.70
2017-09-09T08:30:29.068Z,53.70
2017-09-09T08:32:56.616Z,53.70
2017-09-09T08:35:24.154Z,53.70
2017-09-09T08:37:51.697Z,53.70
2017-09-09T08:40:19.220Z,53.70
2017-09-09T08:42:46.788Z,54.40
2017-09-09T08:45:14.316Z,53.70
2017-09-09T08:47:41.853Z,53.60
2017-09-09T08:50:09.621Z,53.80
2017-09-09T08:52:37.185Z,53.70
2017-09-09T08:55:04.720Z,53.70
2017-09-09T08:57:32.300Z,53.70
2017-09-09T08:59:59.942Z,53.80
2017-09-09T09:02:27.451Z,53.70
2017-09-09T09:04:55.001Z,53.80
2017-09-09T09:07:22.654Z,53.70
2017-09-09T09:09:50.266Z,53.80
2017-09-09T09:12:17.789Z,53.80
2017-09-09T09:14:46.101Z,53.80
2017-09-09T09:17:13.719Z,53.80
2017-09-09T09:19:41.276Z,53.80
2017-09-09T09:22:08.805Z,53.80
2017-09-09T09:24:36.300Z,53.80
2017-09-09T09:27:03.832Z,53.80
2017-09-09T09:29:31.588Z,53.90
2017-09-09T09:31:59.384Z,53.80
2017-09-09T09:34:27.063Z,53.80
2017-09-09T09:36:54.621Z,53.80
2017-09-09T09:39:22.143Z,53.90
2017-09-09T09:41:49.634Z,53.80
2017-09-09T09:44:17.225Z,53.90
2017-09-09T09:46:44.731Z,53.80
2017-09-09T09:49:12.248Z,53.80
2017-09-09T09:51:39.784Z,53.90
2017-09-09T09:54:07.300Z,53.90
2017-09-09T09:56:34.837Z,53.90
2017-09-09T09:59:02.382Z,53.90
2017-09-09T10:01:29.900Z,53.90
2017-09-09T10:03:57.385Z,53.90
2017-09-09T10:06:24.920Z,53.90
2017-09-09T10:08:52.448Z,53.90
2017-09-09T10:11:20.077Z,53.90
2017-09-09T10:13:47.639Z,54.00
2017-09-09T10:16:15.149Z,53.90
2017-09-09T10:18:42.656Z,54.00
2017-09-09T10:21:10.287Z,53.90
2017-09-09T10:23:37.818Z,53.90
2017-09-09T10:26:05.321Z,54.00
2017-09-09T10:28:32.861Z,54.00
2017-09-09T10:31:00.363Z,54.00
2017-09-09T10:33:27.853Z,53.90
2017-09-09T10:35:55.499Z,53.90
2017-09-09T10:38:23.003Z,53.30
2017-09-09T10:40:50.541Z,53.90
2017-09-09T10:43:18.084Z,53.90
2017-09-09T10:45:45.608Z,53.90
2017-09-09T10:48:13.140Z,53.90
2017-09-09T10:50:40.643Z,53.90
2017-09-09T10:53:08.177Z,53.80
2017-09-09T10:55:34.447Z,53.80
2017-09-09T10:58:00.712Z,54.00
2017-09-09T11:00:27.010Z,54.00
2017-09-09T11:02:53.300Z,54.10
2017-09-09T11:05:19.615Z,54.10
2017-09-09T11:07:45.880Z,54.10
2017-09-09T11:10:12.217Z,54.00
2017-09-09T11:12:38.924Z,54.10
2017-09-09T11:15:05.260Z,54.10
2017-09-09T11:17:31.548Z,54.30
2017-09-09T11:19:57.890Z,54.10
2017-09-09T11:22:24.309Z,54.10
2017-09-09T11:24:50.688Z,54.10
2017-09-09T11:27:16.973Z,54.10
2017-09-09T11:29:43.291Z,54.10
2017-09-09T11:32:09.584Z,54.10
2017-09-09T11:34:35.883Z,54.10
2017-09-09T11:37:02.227Z,54.10
2017-09-09T11:39:28.547Z,54.10
2017-09-09T11:41:54.853Z,54.10
2017-09-09T11:44:21.133Z,54.10
2017-09-09T11:46:47.432Z,54.20
2017-09-09T11:49:13.724Z,54.20
2017-09-09T11:51:40.072Z,54.10
2017-09-09T11:54:06.336Z,54.10
2017-09-09T11:56:32.612Z,54.10
2017-09-09T11:58:58.891Z,54.10
2017-09-09T12:01:25.186Z,54.20
2017-09-09T12:03:51.484Z,54.20
2017-09-09T12:06:17.841Z,54.20
2017-09-09T12:08:44.128Z,54.20
2017-09-09T12:11:10.438Z,54.20
2017-09-09T12:13:36.769Z,54.20
2017-09-09T12:16:03.064Z,54.40
2017-09-09T12:18:29.379Z,54.30
2017-09-09T12:20:55.644Z,54.30
2017-09-09T12:23:22.164Z,54.60
2017-09-09T12:25:48.787Z,54.60
2017-09-09T12:28:15.078Z,54.50
2017-09-09T12:30:41.396Z,54.10
2017-09-09T12:33:07.814Z,54.40
2017-09-09T12:35:34.097Z,54.30
2017-09-09T12:38:00.364Z,54.30
2017-09-09T12:40:34.703Z,54.10
2017-09-09T12:43:01.030Z,54.10
2017-09-09T12:45:27.314Z,54.80
2017-09-09T12:47:53.620Z,54.70
2017-09-09T12:50:19.941Z,55.10
2017-09-09T12:52:47.161Z,54.80
2017-09-09T12:55:13.453Z,54.90
2017-09-09T12:57:39.780Z,56.30
2017-09-09T13:00:06.120Z,55.20
2017-09-09T13:02:32.446Z,54.90
2017-09-09T13:04:58.808Z,54.70
2017-09-09T13:07:25.072Z,54.80
2017-09-09T13:09:51.482Z,54.50
2017-09-09T13:12:17.818Z,54.30
2017-09-09T13:14:44.162Z,54.00
2017-09-09T13:17:17.449Z,53.90
2017-09-09T13:19:43.741Z,54.00
2017-09-09T13:22:10.068Z,54.10
2017-09-09T13:24:36.352Z,54.60
2017-09-09T13:27:02.652Z,55.10
2017-09-09T13:29:28.976Z,55.50
2017-09-09T13:31:55.307Z,55.70
2017-09-09T13:34:21.588Z,55.60
2017-09-09T13:36:47.937Z,55.40
2017-09-09T13:39:14.243Z,55.30
2017-09-09T13:41:40.609Z,55.20
2017-09-09T13:44:06.881Z,55.10
2017-09-09T13:46:33.185Z,55.10
2017-09-09T13:48:59.505Z,55.20
2017-09-09T13:51:25.825Z,55.10
2017-09-09T13:53:52.173Z,55.10
2017-09-09T13:56:18.441Z,55.10
2017-09-09T13:58:44.697Z,55.10
2017-09-09T14:01:10.997Z,55.10
2017-09-09T14:03:37.340Z,55.10
2017-09-09T14:06:04.405Z,55.10
2017-09-09T14:08:30.729Z,55.10
2017-09-09T14:10:57.074Z,55.10
2017-09-09T14:13:23.371Z,55.10
2017-09-09T14:15:49.720Z,55.10
2017-09-09T14:18:16.005Z,55.20
2017-09-09T14:20:42.387Z,55.10
2017-09-09T14:23:08.823Z,55.10
2017-09-09T14:25:35.188Z,55.10
2017-09-09T14:28:01.612Z,55.10
2017-09-09T14:30:27.892Z,55.10
2017-09-09T14:32:54.210Z,55.20
2017-09-09T14:35:20.791Z,55.10
2017-09-09T14:37:47.125Z,55.10
2017-09-09T14:40:13.449Z,55.10
2017-09-09T14:42:39.744Z,55.20
2017-09-09T14:45:06.969Z,55.10
2017-09-09T14:47:33.281Z,55.10
2017-09-09T14:49:59.600Z,55.10
2017-09-09T14:52:25.913Z,55.10
2017-09-09T14:54:52.252Z,55.20
2017-09-09T14:57:18.564Z,55.10
2017-09-09T14:59:44.955Z,55.10
2017-09-09T15:02:11.261Z,55.10
2017-09-09T15:04:37.524Z,55.10
2017-09-09T15:07:03.855Z,55.10
2017-09-09T15:09:30.201Z,55.10
2017-09-09T15:11:56.496Z,55.10
2017-09-09T15:14:22.757Z,55.20
2017-09-09T15:16:49.096Z,55.10
2017-09-09T15:19:15.393Z,55.20
2017-09-09T15:21:41.734Z,55.20
2017-09-09T15:24:08.058Z,55.10
2017-09-09T15:26:34.323Z,55.10
2017-09-09T15:29:01.484Z,55.20
2017-09-09T15:31:27.764Z,55.10
2017-09-09T15:33:54.388Z,55.10
2017-09-09T15:36:21.717Z,55.10
2017-09-09T15:38:54.956Z,55.20
2017-09-09T15:41:21.276Z,55.20
2017-09-09T15:43:47.619Z,55.20
2017-09-09T15:46:14.005Z,55.10
2017-09-09T15:48:40.316Z,55.20
2017-09-09T15:51:06.613Z,55.10
2017-09-09T15:53:32.911Z,55.20
2017-09-09T15:55:59.162Z,55.10
2017-09-09T15:58:25.484Z,55.20
2017-09-09T16:00:51.806Z,55.10
2017-09-09T16:03:18.108Z,55.10
2017-09-09T16:05:44.460Z,55.10
2017-09-09T16:08:10.755Z,55.10
2017-09-09T16:10:37.062Z,55.20
2017-09-09T16:13:03.332Z,55.10
2017-09-09T16:15:29.654Z,55.10
2017-09-09T16:17:55.956Z,55.20
2017-09-09T16:20:22.285Z,55.20
2017-09-09T16:22:48.598Z,55.20
2017-09-09T16:25:14.908Z,55.20
2017-09-09T16:27:41.235Z,55.30
2017-09-09T16:30:08.289Z,55.30
2017-09-09T16:32:34.578Z,55.20
2017-09-09T16:35:00.849Z,55.20
2017-09-09T16:37:27.149Z,55.20
2017-09-09T16:39:53.488Z,55.30
2017-09-09T16:42:19.797Z,55.20
2017-09-09T16:44:46.053Z,55.20
2017-09-09T16:47:12.357Z,55.20
2017-09-09T16:49:39.444Z,55.20
2017-09-09T16:52:06.496Z,55.30
2017-09-09T16:54:33.052Z,55.20
2017-09-09T16:56:59.360Z,55.20
2017-09-09T16:59:25.696Z,55.20
2017-09-09T17:01:51.968Z,55.30
2017-09-09T17:04:18.276Z,55.20
2017-09-09T17:06:44.556Z,55.20
2017-09-09T17:09:10.828Z,55.20
2017-09-09T17:11:37.135Z,55.20
2017-09-09T17:14:03.475Z,55.30
2017-09-09T17:16:29.796Z,55.20
2017-09-09T17:18:56.064Z,55.30
2017-09-09T17:21:22.343Z,55.30
2017-09-09T17:23:48.641Z,55.30
2017-09-09T17:26:14.963Z,55.30
2017-09-09T17:28:41.252Z,55.20
2017-09-09T17:31:07.567Z,55.20
2017-09-09T17:33:33.879Z,55.30
2017-09-09T17:36:00.145Z,55.30
2017-09-09T17:38:26.401Z,55.30
2017-09-09T17:40:52.715Z,55.30
2017-09-09T17:43:18.976Z,55.30
2017-09-09T17:45:45.261Z,55.30
2017-09-09T17:48:11.565Z,55.30
2017-09-09T17:50:37.848Z,55.30
2017-09-09T17:53:04.145Z,55.30
2017-09-09T17:55:30.419Z,55.30
2017-09-09T17:57:56.717Z,55.30
2017-09-09T18:00:23.120Z,55.30
2017-09-09T18:02:49.380Z,55.30
2017-09-09T18:05:16.474Z,55.30
2017-09-09T18:07:42.748Z,55.20
2017-09-09T18:10:09.036Z,55.30
2017-09-09T18:12:35.327Z,55.40
2017-09-09T18:15:01.593Z,55.30
2017-09-09T18:17:27.971Z,55.30
2017-09-09T18:19:54.296Z,55.30
2017-09-09T18:22:20.573Z,55.30
2017-09-09T18:24:47.773Z,55.40
2017-09-09T18:27:14.032Z,55.30
2017-09-09T18:29:40.319Z,55.30
2017-09-09T18:32:06.653Z,55.30
2017-09-09T18:34:32.965Z,55.30
2017-09-09T18:36:59.229Z,55.30
2017-09-09T18:39:25.535Z,55.30
2017-09-09T18:41:51.815Z,55.30
2017-09-09T18:44:18.111Z,55.30
2017-09-09T18:46:44.388Z,55.30
2017-09-09T18:49:10.652Z,55.30
2017-09-09T18:51:36.964Z,55.30
2017-09-09T18:54:03.264Z,55.40
2017-09-09T18:56:29.524Z,55.40
2017-09-09T18:58:55.837Z,55.40
2017-09-09T19:01:22.141Z,55.30
2017-09-09T19:03:48.452Z,55.30
2017-09-09T19:06:14.712Z,55.30
2017-09-09T19:08:41.003Z,55.30
2017-09-09T19:11:07.351Z,56.00
2017-09-09T19:13:33.651Z,55.30
2017-09-09T19:15:59.953Z,55.30
2017-09-09T19:18:26.220Z,55.40
2017-09-09T19:20:52.508Z,55.40
2017-09-09T19:23:18.825Z,55.40
2017-09-09T19:25:45.124Z,55.40
2017-09-09T19:28:12.184Z,55.40
2017-09-09T19:30:38.500Z,55.40
2017-09-09T19:33:04.865Z,55.30
2017-09-09T19:35:31.122Z,55.40
2017-09-09T19:37:57.468Z,55.30
2017-09-09T19:40:23.734Z,55.40
2017-09-09T19:42:50.039Z,55.40
2017-09-09T19:45:16.360Z,55.30
2017-09-09T19:47:42.638Z,55.40
2017-09-09T19:50:08.935Z,55.40
2017-09-09T19:52:35.948Z,55.50
2017-09-09T19:55:02.290Z,55.40
2017-09-09T19:57:28.624Z,55.40
2017-09-09T19:59:54.893Z,55.30
2017-09-09T20:02:21.211Z,55.30
2017-09-09T20:04:47.552Z,55.40
2017-09-09T20:07:13.812Z,55.30
2017-09-09T20:09:40.073Z,55.30
2017-09-09T20:12:06.424Z,55.40
2017-09-09T20:14:32.744Z,55.40
2017-09-09T20:16:58.996Z,55.30
2017-09-09T20:19:25.349Z,55.40
2017-09-09T20:21:51.684Z,55.30
2017-09-09T20:24:18.024Z,55.40
2017-09-09T20:26:44.355Z,55.30
2017-09-09T20:29:10.699Z,55.30
2017-09-09T20:31:36.966Z,55.40
2017-09-09T20:34:03.245Z,55.30
2017-09-09T20:36:29.559Z,55.30
2017-09-09T20:38:55.808Z,55.30
2017-09-09T20:41:22.112Z,55.30
2017-09-09T20:43:48.404Z,55.40
2017-09-09T20:46:14.712Z,55.40
2017-09-09T20:48:41.006Z,55.40
2017-09-09T20:51:07.404Z,55.30
2017-09-09T20:53:33.717Z,55.40
2017-09-09T20:56:00.015Z,55.30
2017-09-09T20:58:26.368Z,55.30
2017-09-09T21:00:52.636Z,55.40
2017-09-09T21:03:18.910Z,55.30
2017-09-09T21:05:45.387Z,55.30
2017-09-09T21:08:11.649Z,56.00
2017-09-09T21:10:37.946Z,55.30
2017-09-09T21:13:04.875Z,55.30
2017-09-09T21:15:31.275Z,55.40
2017-09-09T21:17:57.649Z,55.30
2017-09-09T21:20:23.952Z,55.40
2017-09-09T21:22:50.283Z,55.30
2017-09-09T21:25:16.964Z,55.40
2017-09-09T21:27:43.248Z,55.40
2017-09-09T21:30:09.575Z,55.40
2017-09-09T21:32:35.868Z,55.30
2017-09-09T21:35:02.135Z,55.30
2017-09-09T21:37:29.247Z,55.40
2017-09-09T21:39:55.546Z,55.40
2017-09-09T21:42:21.888Z,55.40
2017-09-09T21:44:48.148Z,55.40
2017-09-09T21:47:15.131Z,55.30
2017-09-09T21:49:41.453Z,55.40
2017-09-09T21:52:07.752Z,55.30
2017-09-09T21:54:34.084Z,55.40
2017-09-09T21:57:00.401Z,55.30
2017-09-09T21:59:26.682Z,55.40
2017-09-09T22:01:53.808Z,55.40
2017-09-09T22:04:20.077Z,55.40
2017-09-09T22:06:46.387Z,55.40
2017-09-09T22:09:12.724Z,55.30
2017-09-09T22:11:39.836Z,55.40
2017-09-09T22:14:06.140Z,55.40
2017-09-09T22:16:32.476Z,55.40
2017-09-09T22:18:58.773Z,55.40
2017-09-09T22:21:25.065Z,55.40
2017-09-09T22:23:51.370Z,55.40
2017-09-09T22:26:17.669Z,55.40
2017-09-09T22:28:44.012Z,55.50
2017-09-09T22:31:10.285Z,55.50
2017-09-09T22:33:36.635Z,55.40
2017-09-09T22:36:02.913Z,55.40
2017-09-09T22:38:29.192Z,55.50
2017-09-09T22:40:55.506Z,55.50
2017-09-09T22:43:21.791Z,55.40
2017-09-09T22:45:48.136Z,55.50
2017-09-09T22:48:14.460Z,55.50
2017-09-09T22:50:41.160Z,55.50
2017-09-09T22:53:07.473Z,55.50
2017-09-09T22:55:33.789Z,55.50
2017-09-09T22:58:00.113Z,55.40
2017-09-09T23:00:26.395Z,55.50
2017-09-09T23:02:52.672Z,55.50
2017-09-09T23:05:19.051Z,55.40
2017-09-09T23:07:45.499Z,55.50
2017-09-09T23:10:11.781Z,55.50
2017-09-09T23:12:38.061Z,55.50
2017-09-09T23:15:04.360Z,55.40
2017-09-09T23:17:30.686Z,55.50
2017-09-09T23:19:57.000Z,55.50
2017-09-09T23:22:23.425Z,55.40
2017-09-09T23:24:49.684Z,55.40
2017-09-09T23:27:16.092Z,55.40
2017-09-09T23:29:42.435Z,55.40
2017-09-09T23:32:08.805Z,55.40
2017-09-09T23:34:35.155Z,55.40
2017-09-09T23:37:01.472Z,55.50
2017-09-09T23:39:27.824Z,55.50
2017-09-09T23:41:54.127Z,55.50
2017-09-09T23:44:20.448Z,55.50
2017-09-09T23:46:46.753Z,55.50
2017-09-09T23:49:13.044Z,55.50
2017-09-09T23:51:39.328Z,55.50
2017-09-09T23:54:05.634Z,55.50
2017-09-09T23:56:31.941Z,55.50
2017-09-09T23:58:58.208Z,55.40
